aviador You're here:

KTYS Decoded Metar

KNOXVILLE in TN, USA
Report Time2017-09-21 20:53:00
UTC Time2017-09-21 21:18:31
Flight Rules vfr VFR
Wind030° at 09 kt
W.Decomp.*RWY 05: 8.6 kt HW 2.6 kt LCW
W.Rank030° ranks 6
Current wind is above 030° avg. (5.9)
Visibility9999 m
Phenomena:N/A
Clouds:Scattered 050 Hf
Scattered 120 Hf
Scattered 250 Hf
Expected CloudBase > 6,400 ft AGL from Temp-Dew spread
CeilingNone
Temp31°C (ISA +18)
Dew Point15°C (38% RH)
Heat Index30.6°C
AAT29.4°C
QNH1017 hPa
Density Alt3,140 ft
Elevation991 ft
Report Wrong Elevation
Raw Report
METAR KTYS 212053Z 03009KT 10SM SCT050 SCT120 SCT250 31/15 A3002 RMK
AO2 SLP154 CB DSNT ALQDS T03110150 56019=

Extra information for KTYS:More info

Metar Taf Metar & Taf Last 4 Metars F.Rules Stats Wind Profile Meteogram Temp Stats Airport Information Weather charts Add Link Nearby VenuesMetar ALERT Operation Metar Decoded Social comments

AIRNAV info for KTYS